Holdridge, Nebraska
Current Conditions -  °F | °C
As of 9:15 AM on Friday 19 Dec 2014 (Local Time) from KHDE Reporting Station
Moderate Fog Moderate Fog  
Wind Chill: 23°   Ceiling: 200
Heat Index: 28°   Visibility: 0.25mi
Dew Point: 27°   Wind: 5mph
Humidity: 95%   Direction: 230°SW
Pressure: 30.13"   Gusts: NA
Location:  40.4958°N, 99.3198°W
Report Text: KHDE 191515Z AUTO 23004KT 1/4SM FZFG OVC002 M02/M03 A3013 RMK AO2 T10221029
Loading
Personal Weather Stations






























Interactive Weather Map New forecast layout! Learn more

10-Day Weather Forecast

Advertisements
Track Severe Weather on mobile